Time;durP1;ratioP1;P1;durP2;ratioP2;P2;SDS_P1;SDS_P2;PMS_P1;PMS_P2;Temp;Humidity;BMP_temperature;BMP_pressure;BME280_temperature;BME280_humidity;BME280_pressure;Samples;Min_cycle;Max_cycle;Signal;HPM_P1;HPM_P2
2022/09/08 00:00:12;;;;;;;15.20;9.00;;;;;;;18.59;66.39;98621.40;105741;1278;23156;-86
2022/09/08 00:03:26;;;;;;;;;;;;;;;;;;;;;
2022/09/08 00:06:36;;;;;;;16.40;10.10;;;;;;;18.47;66.75;98614.42;105952;1278;25301;-84
2022/09/08 00:09:17;;;;;;;17.00;9.70;;;;;;;18.45;66.77;98611.98;106020;1277;22591;-84
2022/09/08 00:12:11;;;;;;;15.90;10.20;;;;;;;18.42;66.77;98611.05;105628;1277;22629;-84
2022/09/08 00:14:55;;;;;;;;;;;;;;;;;;;;;
2022/09/08 00:17:37;;;;;;;16.90;10.00;;;;;;;18.34;66.82;98627.08;105855;1277;25234;-83
2022/09/08 00:20:15;;;;;;;16.40;9.80;;;;;;;18.28;67.08;98629.77;105871;1278;22690;-84
2022/09/08 00:23:05;;;;;;;17.10;9.90;;;;;;;18.24;67.07;98624.55;106059;1277;22576;-84
2022/09/08 00:25:45;;;;;;;;;;;;;;;;;;;;;
2022/09/08 00:28:51;;;;;;;18.70;11.60;;;;;;;18.19;67.09;98618.86;105858;1277;22564;-85
2022/09/08 00:31:21;;;;;;;16.40;10.40;;;;;;;18.11;67.15;98619.59;105884;1278;22553;-84
2022/09/08 00:33:48;;;;;;;17.30;10.60;;;;;;;17.99;67.15;98616.17;105845;1277;24364;-83
2022/09/08 00:36:20;;;;;;;16.40;9.50;;;;;;;17.85;67.09;98616.85;105713;1278;22535;-83
2022/09/08 00:39:00;;;;;;;14.20;9.80;;;;;;;17.73;67.31;98614.86;105627;1278;22560;-86
2022/09/08 00:41:33;;;;;;;16.90;10.70;;;;;;;17.64;67.40;98612.08;105805;1277;24215;-87
2022/09/08 00:44:41;;;;;;;14.70;10.30;;;;;;;17.60;67.64;98610.19;105794;1277;25312;-83
2022/09/08 00:47:20;;;;;;;17.70;11.70;;;;;;;17.72;67.87;98603.67;105836;1280;24672;-85
2022/09/08 00:50:22;;;;;;;18.40;11.40;;;;;;;17.74;67.69;98599.86;106077;1277;22613;-85
2022/09/08 00:53:01;;;;;;;17.20;11.20;;;;;;;17.63;67.58;98599.27;106044;1277;22544;-83
2022/09/08 00:55:35;;;;;;;18.00;10.80;;;;;;;17.49;67.66;98600.15;105972;1276;25296;-83
2022/09/08 00:58:02;;;;;;;17.30;11.80;;;;;;;17.36;67.76;98596.67;105869;1280;23978;-84
2022/09/08 01:00:36;;;;;;;17.40;10.30;;;;;;;17.30;67.94;98602.05;106068;1277;22575;-84
2022/09/08 01:03:15;;;;;;;15.70;9.50;;;;;;;17.24;67.93;98604.33;105909;1279;25368;-83
2022/09/08 01:05:51;;;;;;;16.20;10.60;;;;;;;17.17;68.14;98604.30;106056;1277;25318;-85
2022/09/08 01:14:53;;;;;;;18.60;11.20;;;;;;;16.95;68.33;98596.60;106018;1277;22575;-85
2022/09/08 01:17:34;;;;;;;15.80;9.50;;;;;;;16.89;68.49;98597.95;105985;1277;24215;-88
2022/09/08 01:20:08;;;;;;;16.50;9.50;;;;;;;16.92;68.66;98597.84;105734;1277;23907;-83
2022/09/08 01:23:10;;;;;;;15.60;9.90;;;;;;;16.99;68.70;98599.05;105818;1281;22805;-83
2022/09/08 01:26:21;;;;;;;16.90;9.70;;;;;;;17.07;68.74;98595.71;105814;1278;26719;-84
2022/09/08 01:29:00;;;;;;;15.10;8.90;;;;;;;17.08;68.67;98591.99;105905;1278;22540;-86
2022/09/08 01:31:38;;;;;;;15.70;9.40;;;;;;;17.08;68.82;98593.31;105927;1278;22525;-87
2022/09/08 01:34:12;;;;;;;15.30;10.00;;;;;;;17.13;68.80;98595.26;105809;1280;22554;-84
2022/09/08 01:36:38;;;;;;;14.90;10.60;;;;;;;17.03;68.68;98593.40;106063;1277;24214;-85
2022/09/08 01:39:08;;;;;;;14.50;10.10;;;;;;;16.94;68.86;98594.34;106073;1278;25469;-84
2022/09/08 01:41:46;;;;;;;15.70;9.80;;;;;;;16.88;68.95;98593.91;105879;1278;22713;-83
2022/09/08 01:44:19;;;;;;;15.20;9.50;;;;;;;16.92;69.15;98594.56;105858;1278;23167;-85
2022/09/08 01:46:51;;;;;;;14.30;9.00;;;;;;;17.00;69.17;98592.08;105863;1277;25414;-84
2022/09/08 01:49:21;;;;;;;13.90;9.20;;;;;;;17.07;68.99;98592.00;106025;1277;22565;-84
2022/09/08 01:52:02;;;;;;;14.70;9.50;;;;;;;17.06;68.98;98596.78;105918;1281;22531;-86
2022/09/08 01:54:29;;;;;;;15.20;10.00;;;;;;;16.97;68.90;98596.51;105765;1277;25332;-83
2022/09/08 01:56:59;;;;;;;15.00;10.60;;;;;;;16.89;69.09;98603.52;105843;1277;22731;-86
2022/09/08 01:59:28;;;;;;;14.40;9.90;;;;;;;16.85;69.21;98605.04;105853;1280;23907;-84
2022/09/08 02:02:13;;;;;;;;;;;;;;;;;;;;;
2022/09/08 02:04:48;;;;;;;15.70;8.90;;;;;;;16.76;69.32;98605.23;105804;1277;23953;-84
2022/09/08 02:07:27;;;;;;;13.50;9.50;;;;;;;16.79;69.47;98603.20;105847;1281;22573;-88
2022/09/08 02:10:09;;;;;;;16.50;9.80;;;;;;;16.85;69.49;98599.66;105875;1278;24211;-84
2022/09/08 02:12:36;;;;;;;13.30;9.90;;;;;;;16.85;69.41;98598.04;106030;1276;22584;-85
2022/09/08 02:15:04;;;;;;;16.90;10.80;;;;;;;16.80;69.51;98592.66;105940;1278;22602;-85
2022/09/08 02:17:33;;;;;;;15.40;10.50;;;;;;;16.80;69.86;98591.04;105954;1278;22570;-85
2022/09/08 02:20:03;;;;;;;16.20;10.90;;;;;;;16.90;69.90;98583.49;105874;1281;22557;-84
2022/09/08 02:22:33;;;;;;;15.90;10.20;;;;;;;16.93;69.68;98581.16;105789;1281;22563;-82
2022/09/08 02:25:00;;;;;;;15.90;10.70;;;;;;;16.90;69.56;98575.00;106054;1277;25579;-84
2022/09/08 02:27:33;;;;;;;16.20;10.70;;;;;;;16.87;69.65;98572.50;106042;1278;24300;-84
2022/09/08 02:30:03;;;;;;;15.40;9.80;;;;;;;16.83;69.67;98567.52;105905;1280;25602;-84
2022/09/08 02:32:33;;;;;;;15.90;10.00;;;;;;;16.83;69.69;98563.00;105806;1280;22566;-86
2022/09/08 02:35:08;;;;;;;17.00;9.90;;;;;;;16.86;69.78;98560.75;106092;1277;24281;-87
2022/09/08 02:37:51;;;;;;;17.10;10.50;;;;;;;16.87;69.70;98558.95;105755;1278;25320;-85
2022/09/08 02:40:24;;;;;;;17.20;11.50;;;;;;;16.82;69.64;98559.23;105908;1280;25556;-87
2022/09/08 02:42:59;;;;;;;18.80;11.40;;;;;;;16.68;69.57;98559.52;105735;1278;23132;-84
2022/09/08 02:45:40;;;;;;;17.90;12.10;;;;;;;16.61;69.76;98564.39;105800;1281;22766;-83
2022/09/08 02:48:13;;;;;;;14.70;10.30;;;;;;;16.54;69.78;98565.13;105906;1278;25394;-84
2022/09/08 02:50:45;;;;;;;19.40;10.50;;;;;;;16.51;69.88;98565.77;105930;1278;22547;-84
2022/09/08 02:53:19;;;;;;;18.40;11.40;;;;;;;16.48;69.88;98568.40;105844;1281;23950;-87
2022/09/08 02:55:48;;;;;;;17.00;10.30;;;;;;;16.52;70.09;98566.80;105936;1278;25299;-83
2022/09/08 02:58:28;;;;;;;17.80;10.80;;;;;;;16.59;70.19;98566.45;105892;1278;22555;-84
2022/09/08 03:01:11;;;;;;;17.10;10.00;;;;;;;16.62;70.13;98563.25;105936;1278;22544;-87
2022/09/08 03:03:51;;;;;;;17.20;10.70;;;;;;;16.66;70.22;98557.98;105911;1280;22535;-86
2022/09/08 03:06:50;;;;;;;19.30;11.50;;;;;;;16.70;70.21;98551.39;105895;1280;23954;-85
2022/09/08 03:09:34;;;;;;;;;;;;;;;;;;;;;
2022/09/08 03:12:23;;;;;;;17.50;11.70;;;;;;;16.74;70.09;98556.60;106095;1278;24241;-87
2022/09/08 03:15:11;;;;;;;16.50;10.40;;;;;;;16.72;70.11;98550.81;105951;1278;22576;-84
2022/09/08 03:17:48;;;;;;;16.80;11.00;;;;;;;16.71;70.09;98547.52;105872;1281;22574;-85
2022/09/08 03:20:29;;;;;;;19.00;11.60;;;;;;;16.73;70.18;98543.55;105871;1278;22534;-85
2022/09/08 03:23:02;;;;;;;20.90;11.60;;;;;;;16.75;70.17;98541.23;105920;1278;25285;-84
2022/09/08 03:25:37;;;;;;;20.20;10.60;;;;;;;16.74;70.16;98543.96;105955;1277;22695;-84
2022/09/08 03:28:49;;;;;;;;;;;;;;;;;;;;;
2022/09/08 03:31:53;;;;;;;17.40;11.30;;;;;;;16.68;70.14;98545.16;105979;1278;22535;-84
2022/09/08 03:35:14;;;;;;;16.60;10.60;;;;;;;16.62;70.24;98540.77;106083;1277;22561;-84
2022/09/08 03:38:31;;;;;;;;;;;;;;;;;;;;;
2022/09/08 03:41:50;;;;;;;16.50;11.80;;;;;;;16.65;70.39;98537.23;105807;1280;24107;-84
2022/09/08 03:44:26;;;;;;;17.30;11.50;;;;;;;16.67;70.37;98535.91;106053;1277;22546;-84
2022/09/08 03:47:18;;;;;;;;;;;;;;;;;;;;;
2022/09/08 03:50:19;;;;;;;19.50;12.60;;;;;;;16.63;70.39;98526.69;105962;1278;25567;-84
2022/09/08 03:53:12;;;;;;;;;;;;;;;;;;;;;
2022/09/08 03:55:56;;;;;;;20.10;12.40;;;;;;;16.55;70.37;98522.61;105893;1277;24354;-86
2022/09/08 03:58:40;;;;;;;18.40;12.10;;;;;;;16.49;70.44;98519.08;105851;1277;24418;-88
2022/09/08 04:01:54;;;;;;;;;;;;;;;;;;;;;
2022/09/08 04:04:47;;;;;;;;;;;;;;;;;;;;;
2022/09/08 04:09:01;;;;;;;17.10;11.10;;;;;;;16.37;70.53;98512.48;105980;1278;22554;-86
2022/09/08 04:11:37;;;;;;;;;;;;;;;;;;;;;
2022/09/08 04:14:39;;;;;;;21.50;12.10;;;;;;;16.43;70.68;98509.48;106000;1277;22654;-84
2022/09/08 04:17:16;;;;;;;18.50;12.20;;;;;;;16.42;70.67;98503.85;105900;1277;22617;-86
2022/09/08 04:19:51;;;;;;;22.00;11.80;;;;;;;16.40;70.68;98498.71;105822;1277;22682;-84
2022/09/08 04:22:22;;;;;;;22.50;11.40;;;;;;;16.39;70.69;98494.16;105892;1277;25368;-84
2022/09/08 04:24:52;;;;;;;23.10;12.00;;;;;;;16.39;70.69;98499.15;105836;1280;25482;-85
2022/09/08 04:27:19;;;;;;;23.20;11.40;;;;;;;16.40;70.78;98501.91;105847;1277;26502;-83
2022/09/08 04:29:47;;;;;;;20.40;11.50;;;;;;;16.42;70.72;98506.52;105893;1276;22754;-87
2022/09/08 04:32:17;;;;;;;19.20;11.40;;;;;;;16.46;70.88;98513.13;105830;1278;22576;-84
2022/09/08 04:34:50;;;;;;;19.80;12.60;;;;;;;16.50;70.86;98516.55;105887;1277;24345;-84
2022/09/08 04:37:23;;;;;;;23.30;13.50;;;;;;;16.52;70.90;98524.45;105942;1277;25240;-84
2022/09/08 04:39:53;;;;;;;24.80;13.30;;;;;;;16.49;70.86;98520.70;105758;1277;22556;-84
2022/09/08 04:42:27;;;;;;;20.30;12.70;;;;;;;16.39;70.78;98525.86;105809;1277;22557;-85
2022/09/08 04:44:57;;;;;;;21.10;13.30;;;;;;;16.32;71.05;98529.32;105839;1277;22660;-83
2022/09/08 04:47:29;;;;;;;17.70;12.30;;;;;;;16.32;71.21;98531.65;105918;1277;22551;-86
2022/09/08 04:50:02;;;;;;;18.00;11.60;;;;;;;16.37;71.34;98524.36;105906;1278;24604;-85
2022/09/08 04:52:31;;;;;;;18.50;12.40;;;;;;;16.45;71.42;98516.05;105954;1278;21960;-83
2022/09/08 04:55:22;;;;;;;18.00;11.20;;;;;;;16.47;71.33;98512.80;105942;1277;22738;-90
2022/09/08 04:57:54;;;;;;;19.40;12.50;;;;;;;16.51;71.43;98510.13;105973;1277;24275;-88
2022/09/08 05:00:27;;;;;;;19.70;12.00;;;;;;;16.62;71.64;98513.27;105965;1277;25378;-84
2022/09/08 05:02:56;;;;;;;15.60;11.20;;;;;;;16.65;71.53;98510.61;106304;1277;22601;-84
2022/09/08 05:05:28;;;;;;;15.70;10.50;;;;;;;16.69;71.44;98508.76;105651;1277;25727;-84
2022/09/08 05:07:57;;;;;;;16.90;11.10;;;;;;;16.72;71.41;98504.33;106189;1277;23205;-81
2022/09/08 05:10:35;;;;;;;16.30;11.10;;;;;;;16.74;71.40;98497.08;106228;1277;24351;-84
2022/09/08 05:13:05;;;;;;;17.80;10.30;;;;;;;16.81;71.43;98493.43;106083;1277;26596;-83
2022/09/08 05:15:38;;;;;;;21.70;11.40;;;;;;;16.87;71.39;98491.69;106033;1278;23116;-84
2022/09/08 05:18:12;;;;;;;22.50;12.60;;;;;;;16.94;71.35;98482.04;105746;1280;22535;-87
2022/09/08 05:20:39;;;;;;;24.10;13.20;;;;;;;16.98;71.09;98482.96;105883;1277;22574;-83
2022/09/08 05:23:07;;;;;;;22.40;13.40;;;;;;;17.02;71.19;98487.05;105873;1277;24242;-84
2022/09/08 05:25:38;;;;;;;22.40;12.70;;;;;;;17.14;71.41;98489.34;105881;1278;22585;-84
2022/09/08 05:28:05;;;;;;;20.90;12.70;;;;;;;17.31;71.40;98487.36;105720;1278;22547;-88
2022/09/08 05:30:39;;;;;;;20.80;11.80;;;;;;;17.47;71.38;98485.52;105676;1277;24419;-84
2022/09/08 05:33:13;;;;;;;17.40;11.90;;;;;;;17.69;71.38;98484.29;105788;1278;22697;-85
2022/09/08 05:35:43;;;;;;;18.30;11.80;;;;;;;17.88;71.26;98491.20;105667;1278;24238;-83
2022/09/08 05:38:10;;;;;;;17.30;11.90;;;;;;;18.04;71.47;98485.06;105888;1277;22578;-83
2022/09/08 05:40:37;;;;;;;18.00;12.20;;;;;;;18.22;71.53;98479.39;105771;1278;24281;-85
2022/09/08 05:43:06;;;;;;;19.80;11.80;;;;;;;18.46;71.62;98473.88;105775;1278;25341;-84
2022/09/08 05:45:34;;;;;;;20.70;13.10;;;;;;;18.66;71.44;98475.09;105817;1277;22534;-85
2022/09/08 05:48:04;;;;;;;17.10;11.40;;;;;;;18.83;71.22;98473.20;105817;1277;22537;-83
2022/09/08 05:50:42;;;;;;;19.10;11.30;;;;;;;18.98;71.23;98465.98;105795;1281;22571;-82
2022/09/08 05:53:13;;;;;;;16.20;10.40;;;;;;;19.14;71.43;98466.66;105777;1280;22554;-84
2022/09/08 05:55:53;;;;;;;15.00;10.80;;;;;;;19.34;71.48;98464.11;105794;1278;25660;-85
2022/09/08 05:58:24;;;;;;;17.10;11.10;;;;;;;19.52;71.30;98460.42;106005;1277;22551;-83
2022/09/08 06:01:08;;;;;;;15.50;10.50;;;;;;;19.68;71.19;98456.55;105755;1277;22537;-84
2022/09/08 06:03:42;;;;;;;18.40;10.30;;;;;;;19.84;71.22;98454.77;105775;1280;25569;-82
2022/09/08 06:06:12;;;;;;;16.70;10.20;;;;;;;19.99;71.10;98457.30;105821;1277;25229;-83
2022/09/08 06:08:45;;;;;;;16.40;10.60;;;;;;;20.12;71.14;98457.40;105833;1278;23031;-83
2022/09/08 06:11:14;;;;;;;13.40;9.90;;;;;;;20.25;71.03;98453.42;106558;1276;24347;-83
2022/09/08 06:13:45;;;;;;;14.80;10.40;;;;;;;20.39;71.03;98457.44;105944;1277;22555;-83
2022/09/08 06:16:17;;;;;;;16.80;10.10;;;;;;;20.54;70.98;98458.95;105869;1277;25485;-83
2022/09/08 06:18:46;;;;;;;14.50;10.20;;;;;;;20.70;70.95;98453.02;105732;1281;22817;-85
2022/09/08 06:21:21;;;;;;;15.30;10.10;;;;;;;20.85;71.03;98448.82;105968;1277;22534;-83
2022/09/08 06:23:50;;;;;;;16.30;10.20;;;;;;;20.98;70.91;98449.64;106144;1277;23383;-82
2022/09/08 06:27:05;;;;;;;;;;;;;;;;;;;;;
2022/09/08 06:29:59;;;;;;;16.20;9.30;;;;;;;21.16;70.76;98447.75;105762;1278;25539;-82
2022/09/08 06:32:48;;;;;;;15.60;9.60;;;;;;;21.24;70.62;98442.90;106007;1277;22475;-82
2022/09/08 06:35:29;;;;;;;16.60;9.80;;;;;;;21.34;70.89;98437.77;105891;1277;24257;-84
2022/09/08 06:38:14;;;;;;;14.00;8.70;;;;;;;21.41;70.69;98434.88;106210;1277;22615;-81
2022/09/08 06:40:49;;;;;;;14.10;8.50;;;;;;;21.46;70.73;98432.58;105811;1277;25288;-82
2022/09/08 06:43:38;;;;;;;15.40;8.30;;;;;;;21.54;70.73;98432.64;105803;1277;25349;-80
2022/09/08 06:46:39;;;;;;;12.10;8.50;;;;;;;21.65;70.73;98431.61;106004;1280;23904;-86
2022/09/08 06:49:11;;;;;;;14.20;9.10;;;;;;;21.73;70.72;98428.96;105830;1278;25453;-81
2022/09/08 06:51:43;;;;;;;14.60;9.00;;;;;;;21.86;70.59;98434.70;105754;1277;22538;-82
2022/09/08 06:54:09;;;;;;;13.40;9.10;;;;;;;21.96;70.38;98433.98;106026;1277;22637;-83
2022/09/08 06:56:59;;;;;;;12.30;8.20;;;;;;;22.07;70.57;98431.98;106101;1277;26469;-83
2022/09/08 06:59:39;;;;;;;14.40;7.90;;;;;;;22.24;70.62;98428.55;105817;1277;25232;-81
2022/09/08 07:02:38;;;;;;;16.10;7.80;;;;;;;22.40;70.37;98424.20;105680;1277;24290;-85
2022/09/08 07:05:42;;;;;;;13.90;8.30;;;;;;;22.56;70.24;98422.48;105694;1277;25660;-85
2022/09/08 07:08:59;;;;;;;16.70;8.40;;;;;;;22.70;70.28;98423.50;105905;1277;26524;-83
2022/09/08 07:11:33;;;;;;;14.80;8.30;;;;;;;22.84;70.12;98417.61;105760;1279;26488;-82
2022/09/08 07:14:14;;;;;;;11.50;8.00;;;;;;;22.99;70.17;98419.95;105963;1277;22547;-83
2022/09/08 07:16:48;;;;;;;11.30;7.70;;;;;;;23.13;70.34;98416.63;105965;1277;23305;-82
2022/09/08 07:19:26;;;;;;;13.20;8.80;;;;;;;23.26;69.88;98417.11;105678;1277;25367;-82
2022/09/08 07:22:30;;;;;;;11.60;8.40;;;;;;;23.36;69.62;98416.49;105814;1277;22557;-83
2022/09/08 07:25:16;;;;;;;11.80;8.10;;;;;;;23.46;69.63;98411.56;105718;1278;24360;-84
2022/09/08 07:27:52;;;;;;;13.70;8.20;;;;;;;23.57;69.84;98412.20;105987;1277;22852;-82
2022/09/08 07:30:21;;;;;;;11.90;6.80;;;;;;;23.69;69.88;98411.80;106123;1277;22660;-84
2022/09/08 07:33:08;;;;;;;12.60;7.70;;;;;;;23.84;69.97;98412.17;105956;1277;22550;-83
2022/09/08 07:35:50;;;;;;;14.70;7.50;;;;;;;24.00;69.69;98420.13;105859;1278;22556;-85
2022/09/08 07:38:35;;;;;;;14.20;7.70;;;;;;;24.11;69.58;98415.83;105834;1277;22996;-86
2022/09/08 07:41:09;;;;;;;13.00;7.30;;;;;;;24.25;69.50;98413.52;105768;1277;22679;-84
2022/09/08 07:43:39;;;;;;;15.30;6.60;;;;;;;24.35;69.29;98412.02;105794;1278;24287;-81
2022/09/08 07:46:53;;;;;;;11.40;6.50;;;;;;;24.42;69.25;98408.44;105777;1278;25360;-81
2022/09/08 07:49:45;;;;;;;12.20;6.70;;;;;;;24.46;69.31;98403.89;105954;1277;26473;-83
2022/09/08 07:52:45;;;;;;;;;;;;;;;;;;;;;
2022/09/08 07:55:34;;;;;;;12.50;7.60;;;;;;;24.57;69.03;98402.63;105920;1277;22545;-81
2022/09/08 07:58:51;;;;;;;10.10;5.80;;;;;;;24.54;68.90;98401.59;105830;1277;25602;-81
2022/09/08 08:01:33;;;;;;;11.60;6.50;;;;;;;24.65;69.20;98407.02;105973;1277;25307;-83
2022/09/08 08:04:46;;;;;;;11.30;6.70;;;;;;;24.81;69.26;98404.08;105806;1277;22664;-82
2022/09/08 08:07:45;;;;;;;10.80;6.00;;;;;;;24.95;68.82;98401.59;105155;1285;22550;-86
2022/09/08 08:10:46;;;;;;;16.40;9.80;;;;;;;25.09;68.86;98401.52;105412;1284;24306;-82
2022/09/08 08:13:43;;;;;;;20.20;12.60;;;;;;;25.18;68.48;98398.50;105355;1284;24463;-84
2022/09/08 08:16:49;;;;;;;17.10;8.90;;;;;;;25.32;68.58;98397.04;105442;1284;22551;-83
2022/09/08 08:19:34;;;;;;;11.90;7.50;;;;;;;25.51;68.32;98395.04;105176;1285;22772;-81
2022/09/08 08:26:12;;;;;;;14.90;7.50;;;;;;;25.66;68.14;98394.33;105380;1284;22562;-84
2022/09/08 08:28:45;;;;;;;14.30;7.40;;;;;;;25.71;68.06;98398.92;105471;1284;22648;-81
2022/09/08 08:31:39;;;;;;;44.90;26.40;;;;;;;25.59;67.84;98395.14;105245;1285;23962;-80
2022/09/08 08:34:32;;;;;;;17.00;8.90;;;;;;;25.60;68.01;98395.30;105383;1285;22716;-86
2022/09/08 08:37:03;;;;;;;39.90;21.70;;;;;;;25.48;67.45;98387.95;105428;1284;25482;-81
2022/09/08 08:39:33;;;;;;;74.90;38.40;;;;;;;25.40;67.63;98385.80;105487;1285;24378;-81
2022/09/08 08:42:29;;;;;;;;;;;;;;;;;;;;;
2022/09/08 08:45:13;;;;;;;20.90;12.00;;;;;;;25.61;67.78;98394.48;105857;1278;22540;-81
2022/09/08 08:47:49;;;;;;;13.50;7.30;;;;;;;25.68;67.60;98392.92;105844;1278;22540;-81
2022/09/08 08:50:45;;;;;;;33.70;18.90;;;;;;;25.82;67.71;98393.33;105820;1277;24244;-79
2022/09/08 08:53:37;;;;;;;31.40;17.90;;;;;;;25.98;67.58;98392.42;105705;1277;22553;-85
2022/09/08 08:56:13;;;;;;;13.10;7.80;;;;;;;26.12;67.35;98395.78;105478;1284;22675;-82
2022/09/08 08:58:48;;;;;;;16.70;9.00;;;;;;;26.25;67.03;98385.83;105439;1284;22573;-83
2022/09/08 09:01:42;;;;;;;14.20;7.30;;;;;;;26.35;66.91;98381.30;105428;1284;22566;-80
2022/09/08 09:04:31;;;;;;;11.20;6.40;;;;;;;26.39;66.69;98380.31;105420;1284;25231;-80
2022/09/08 09:07:40;;;;;;;11.50;6.80;;;;;;;26.43;66.86;98375.92;105453;1284;25433;-77
2022/09/08 09:10:30;;;;;;;15.50;6.50;;;;;;;26.48;66.38;98375.65;105425;1283;25320;-77
2022/09/08 09:13:12;;;;;;;13.40;7.00;;;;;;;26.49;66.58;98371.34;105383;1284;25321;-77
2022/09/08 09:16:10;;;;;;;15.40;6.80;;;;;;;26.42;66.08;98368.98;105397;1284;25248;-79
2022/09/08 09:18:43;;;;;;;10.50;6.60;;;;;;;26.20;65.88;98359.98;105164;1285;25396;-81
2022/09/08 09:21:36;;;;;;;13.70;6.60;;;;;;;25.97;65.95;98360.15;105393;1284;25246;-78
2022/09/08 09:24:28;;;;;;;28.80;14.10;;;;;;;25.79;66.12;98361.34;105372;1284;25352;-78
2022/09/08 09:26:56;;;;;;;17.80;8.70;;;;;;;25.70;66.09;98364.33;105370;1284;25320;-81
2022/09/08 09:29:25;;;;;;;22.50;11.40;;;;;;;25.59;65.97;98361.28;105385;1284;25208;-81
2022/09/08 09:32:04;;;;;;;17.80;9.60;;;;;;;25.50;66.11;98369.35;105455;1284;25376;-82
2022/09/08 09:34:59;;;;;;;11.70;7.50;;;;;;;25.39;66.08;98370.75;105790;1277;25420;-81
2022/09/08 09:37:48;;;;;;;16.50;7.60;;;;;;;25.30;66.04;98369.55;105748;1280;24334;-83
2022/09/08 09:40:48;;;;;;;22.90;12.10;;;;;;;25.23;65.98;98364.69;105925;1277;22564;-78
2022/09/08 09:43:23;;;;;;;21.10;11.60;;;;;;;25.18;65.93;98361.62;105816;1278;25244;-80
2022/09/08 09:46:21;;;;;;;18.30;10.10;;;;;;;25.13;65.85;98355.84;105614;1277;23958;-80
2022/09/08 09:49:00;;;;;;;15.10;7.30;;;;;;;25.05;65.73;98354.45;105719;1278;25340;-79
2022/09/08 09:52:02;;;;;;;16.60;9.80;;;;;;;24.97;65.88;98359.40;105826;1278;25355;-81
2022/09/08 09:54:44;;;;;;;12.30;8.20;;;;;;;24.94;66.06;98359.97;105892;1278;25511;-85
2022/09/08 09:57:52;;;;;;;15.80;7.20;;;;;;;24.94;65.90;98362.49;105889;1278;22714;-83
2022/09/08 10:00:41;;;;;;;12.30;7.60;;;;;;;24.91;65.80;98361.46;105120;1287;22719;-86
2022/09/08 10:03:35;;;;;;;11.80;6.80;;;;;;;24.92;65.92;98358.12;105146;1287;23023;-84
2022/09/08 10:06:02;;;;;;;14.10;7.80;;;;;;;24.95;65.85;98360.89;105144;1287;23970;-84
2022/09/08 10:08:51;;;;;;;19.10;9.30;;;;;;;24.97;65.86;98361.46;105202;1287;26606;-82
2022/09/08 10:11:58;;;;;;;20.70;9.20;;;;;;;24.97;65.76;98359.53;105132;1287;22554;-85
2022/09/08 10:15:00;;;;;;;18.30;10.00;;;;;;;24.95;65.68;98356.14;105184;1285;25478;-82
2022/09/08 10:17:55;;;;;;;16.30;8.40;;;;;;;24.87;65.61;98348.71;105210;1285;25868;-81
2022/09/08 10:20:46;;;;;;;15.70;8.00;;;;;;;24.79;65.57;98347.50;105312;1285;25364;-82
2022/09/08 10:23:48;;;;;;;14.60;7.60;;;;;;;24.71;65.50;98350.15;105119;1285;23939;-87
2022/09/08 10:26:49;;;;;;;13.20;6.80;;;;;;;24.66;65.68;98348.98;105338;1285;22617;-83
2022/09/08 10:29:36;;;;;;;11.90;7.50;;;;;;;24.65;65.70;98344.69;105328;1285;22668;-84
2022/09/08 10:32:27;;;;;;;14.30;8.50;;;;;;;24.61;65.50;98339.90;105174;1285;22730;-82
2022/09/08 10:35:29;;;;;;;17.70;10.10;;;;;;;24.57;65.44;98339.27;105153;1285;22786;-83
2022/09/08 10:38:41;;;;;;;25.80;16.20;;;;;;;24.55;65.33;98333.64;105910;1276;22665;-81
2022/09/08 10:41:25;;;;;;;17.10;9.90;;;;;;;24.63;65.39;98333.42;105311;1285;22561;-85
2022/09/08 10:44:07;;;;;;;13.00;7.00;;;;;;;24.78;65.44;98334.48;105358;1285;25456;-81
2022/09/08 10:47:15;;;;;;;;;;;;;;;;;;;;;
2022/09/08 10:50:11;;;;;;;9.80;6.40;;;;;;;25.15;65.18;98328.73;105166;1285;22582;-86
2022/09/08 10:52:52;;;;;;;10.30;6.30;;;;;;;25.34;65.19;98336.90;105165;1285;22552;-85
2022/09/08 10:55:31;;;;;;;15.70;7.30;;;;;;;25.54;64.91;98335.25;105380;1285;22572;-82
2022/09/08 10:58:16;;;;;;;14.90;6.90;;;;;;;25.68;65.01;98333.61;105133;1285;22537;-79
2022/09/08 11:00:56;;;;;;;11.80;6.20;;;;;;;25.82;64.93;98333.17;105339;1285;25500;-87
2022/09/08 11:04:09;;;;;;;11.30;6.20;;;;;;;25.92;64.66;98330.23;105410;1285;25401;-80
2022/09/08 11:06:35;;;;;;;11.60;5.90;;;;;;;25.99;64.33;98325.27;105054;1285;24278;-77
2022/09/08 11:09:24;;;;;;;10.10;6.10;;;;;;;26.02;64.72;98326.42;105335;1285;22550;-84
2022/09/08 11:12:10;;;;;;;13.80;6.10;;;;;;;26.12;64.33;98320.13;105500;1277;22573;-83
2022/09/08 11:15:01;;;;;;;11.80;6.30;;;;;;;26.20;64.43;98314.56;105931;1276;25456;-77
2022/09/08 11:17:42;;;;;;;9.00;6.00;;;;;;;26.36;64.24;98309.11;105841;1276;22573;-82
2022/09/08 11:20:27;;;;;;;11.30;6.20;;;;;;;26.58;64.40;98297.25;105837;1277;24306;-82
2022/09/08 11:23:23;;;;;;;11.10;6.30;;;;;;;26.60;64.02;98296.70;105847;1277;24221;-84
2022/09/08 11:26:02;;;;;;;9.90;6.30;;;;;;;26.58;63.96;98297.38;105809;1277;22580;-85
2022/09/08 11:29:00;;;;;;;13.00;6.60;;;;;;;26.50;63.71;98294.28;105934;1276;22622;-85
2022/09/08 11:31:40;;;;;;;11.90;6.20;;;;;;;26.43;63.92;98287.71;105979;1277;22564;-83
2022/09/08 11:34:11;;;;;;;15.20;7.00;;;;;;;26.34;63.68;98285.20;105876;1277;22568;-80
2022/09/08 11:37:03;;;;;;;12.40;6.80;;;;;;;26.27;63.80;98273.81;105752;1277;22704;-82
2022/09/08 11:40:08;;;;;;;10.40;6.20;;;;;;;26.26;63.62;98264.92;105836;1277;25214;-80
2022/09/08 11:43:16;;;;;;;10.50;6.70;;;;;;;26.25;63.72;98256.42;105934;1276;22553;-80
2022/09/08 11:46:21;;;;;;;12.10;6.60;;;;;;;26.25;63.58;98242.83;105845;1277;25504;-87
2022/09/08 11:49:20;;;;;;;11.10;6.60;;;;;;;26.37;64.11;98231.52;105891;1277;25310;-79
2022/09/08 11:52:22;;;;;;;11.70;6.70;;;;;;;26.55;64.28;98217.42;105897;1277;22548;-81
2022/09/08 11:55:27;;;;;;;10.80;6.40;;;;;;;26.72;63.73;98207.77;105897;1274;22579;-77
2022/09/08 11:58:13;;;;;;;14.30;6.60;;;;;;;26.87;63.82;98202.34;105806;1277;22565;-88
2022/09/08 12:01:17;;;;;;;10.90;6.70;;;;;;;26.96;63.34;98196.16;105817;1277;22561;-82
2022/09/08 12:04:00;;;;;;;11.90;6.80;;;;;;;27.09;63.34;98181.43;105793;1277;24408;-82
2022/09/08 12:06:43;;;;;;;13.50;6.20;;;;;;;27.26;63.12;98173.11;105848;1276;23101;-79
2022/09/08 12:09:45;;;;;;;;;;;;;;;;;;;;;
2022/09/08 12:12:53;;;;;;;11.10;6.20;;;;;;;27.26;62.84;98165.44;105852;1277;22580;-81
2022/09/08 12:15:52;;;;;;;;;;;;;;;;;;;;;
2022/09/08 12:18:48;;;;;;;11.60;7.20;;;;;;;26.62;62.84;98163.52;105446;1284;22727;-82
2022/09/08 12:21:33;;;;;;;11.10;6.80;;;;;;;26.28;62.49;98157.15;105402;1284;25233;-78
2022/09/08 12:24:11;;;;;;;11.40;7.30;;;;;;;26.03;62.65;98150.95;104248;1284;1581391;-79
2022/09/08 12:26:56;;;;;;;12.00;8.00;;;;;;;25.80;62.82;98147.95;105503;1284;23479;-77
2022/09/08 12:29:42;;;;;;;11.20;8.10;;;;;;;25.55;62.83;98141.23;105434;1284;25231;-80
2022/09/08 12:33:03;;;;;;;14.00;9.60;;;;;;;25.32;62.90;98145.31;105380;1284;25338;-77
2022/09/08 12:39:32;;;;;;;13.70;9.30;;;;;;;24.77;63.25;98132.05;105196;1284;22571;-78
2022/09/08 12:42:13;;;;;;;12.70;8.70;;;;;;;24.60;63.28;98127.63;105372;1284;22856;-82
2022/09/08 12:44:52;;;;;;;14.20;9.00;;;;;;;24.51;63.54;98116.83;105070;1284;23012;-81
2022/09/08 12:47:50;;;;;;;13.70;9.60;;;;;;;24.45;63.39;98100.34;105208;1285;24296;-81
2022/09/08 12:50:53;;;;;;;16.80;9.60;;;;;;;24.39;63.53;98106.46;105438;1284;22767;-80
2022/09/08 12:53:49;;;;;;;17.40;9.90;;;;;;;24.30;63.45;98122.11;105677;1277;25471;-81
2022/09/08 12:56:48;;;;;;;16.50;9.90;;;;;;;24.20;63.29;98124.55;105699;1276;22566;-81
2022/09/08 12:59:47;;;;;;;15.50;10.40;;;;;;;24.07;63.31;98124.84;105325;1284;25491;-82
2022/09/08 13:02:38;;;;;;;14.90;10.50;;;;;;;23.92;63.24;98125.80;105111;1284;23967;-79
2022/09/08 13:05:43;;;;;;;17.70;10.90;;;;;;;23.79;63.54;98121.42;105242;1284;25255;-82
2022/09/08 13:08:32;;;;;;;17.40;10.40;;;;;;;23.68;63.69;98126.10;105197;1282;24481;-82
2022/09/08 13:11:43;;;;;;;20.50;11.40;;;;;;;23.58;63.71;98144.61;105187;1284;22678;-84